Time;durP1;ratioP1;P1;durP2;ratioP2;P2;SDS_P1;SDS_P2;PMS_P1;PMS_P2;Temp;Humidity;BMP_temperature;BMP_pressure;BME280_temperature;BME280_humidity;BME280_pressure;Samples;Min_cycle;Max_cycle;Signal;HPM_P1;HPM_P2
2022/04/10 09:10:24;;;;;;;;;;;;;;;16.23;33.34;94262.41;2119056;27;1524;-66
2022/04/10 09:11:29;;;;;;;;;;;;;;;16.17;33.73;94268.53;2111837;28;1644;-66
2022/04/10 09:12:30;;;;;;;;;;;;;;;15.95;33.59;94259.13;2093526;28;1667;-65
2022/04/10 09:13:51;;;;;;;;;;;;;;;15.67;34.45;94275.09;2094261;28;1702;-65
2022/04/10 09:15:01;;;;;;;;;;;;;;;15.53;35.36;94261.00;2109841;28;1489;-65
2022/04/10 09:16:08;;;;;;;;;;;;;;;15.56;34.84;94272.03;2110051;28;959;-66
2022/04/10 09:17:12;;;;;;;;;;;;;;;15.56;35.21;94272.03;2096931;28;1012;-65
2022/04/10 09:18:13;;;;;;;;;;;;;;;15.58;34.76;94263.88;2096151;28;1127;-65
2022/04/10 09:19:15;;;;;;;;;;;;;;;15.48;35.08;94268.72;2096240;28;1073;-66
2022/04/10 09:20:17;;;;;;;;;;;;;;;15.37;35.69;94265.63;2096825;28;1182;-66
2022/04/10 09:21:28;;;;;;;;;;;;;;;15.25;35.79;94271.66;2111411;28;1683;-65
2022/04/10 09:22:30;;;;;;;;;;;;;;;15.24;36.15;94276.16;2110542;28;1062;-65
2022/04/10 09:23:31;;;;;;;;;;;;;;;15.25;36.13;94275.16;2095830;28;1134;-65
2022/04/10 09:24:33;;;;;;;;;;;;;;;15.32;35.88;94275.19;2088194;28;1771;-65
2022/04/10 09:25:44;;;;;;;;;;;;;;;15.36;35.44;94273.75;2094163;28;1736;-64
2022/04/10 09:26:50;;;;;;;;;;;;;;;15.28;35.45;94265.97;2101092;28;1489;-65
2022/04/10 09:27:52;;;;;;;;;;;;;;;15.22;35.53;94275.50;2103703;28;1047;-66
2022/04/10 09:28:54;;;;;;;;;;;;;;;15.30;35.81;94278.00;2096207;28;1043;-64
2022/04/10 09:29:56;;;;;;;;;;;;;;;15.32;35.40;94270.69;2096446;28;1982;-65
2022/04/10 09:30:57;;;;;;;;;;;;;;;15.24;35.51;94275.34;2096092;28;1464;-66
2022/04/10 09:31:59;;;;;;;;;;;;;;;15.45;35.10;94274.41;2095908;28;1493;-67
2022/04/10 09:33:03;;;;;;;;;;;;;;;15.54;34.77;94271.41;2102953;28;1118;-66
2022/04/10 09:34:09;;;;;;;;;;;;;;;15.62;34.61;94275.69;2102375;28;1541;-66
2022/04/10 09:35:13;;;;;;;;;;;;;;;15.65;34.33;94283.25;2091779;28;1638;-66
2022/04/10 09:36:26;;;;;;;;;;;;;;;15.62;34.16;94278.34;2092099;28;1161;-66
2022/04/10 09:37:30;;;;;;;;;;;;;;;15.69;33.92;94275.72;2096562;28;1568;-66
2022/04/10 09:38:32;;;;;;;;;;;;;;;15.71;33.92;94293.06;2095456;28;1535;-66
2022/04/10 09:39:34;;;;;;;;;;;;;;;15.71;34.19;94274.53;2096059;28;1081;-66
2022/04/10 09:40:36;;;;;;;;;;;;;;;15.81;34.25;94280.25;2096458;28;1091;-66
2022/04/10 09:41:39;;;;;;;;;;;;;;;15.76;33.74;94277.41;2096599;28;1168;-66
2022/04/10 09:42:40;;;;;;;;;;;;;;;15.69;33.96;94275.72;2096256;28;1561;-66
2022/04/10 09:43:50;;;;;;;;;;;;;;;15.70;34.15;94291.41;2095980;28;1024;-66
2022/04/10 09:44:52;;;;;;;;;;;;;;;15.72;34.33;94275.31;2096144;28;1053;-66
2022/04/10 09:45:57;;;;;;;;;;;;;;;15.77;34.26;94276.41;2095810;28;1599;-66
2022/04/10 09:47:00;;;;;;;;;;;;;;;15.82;33.97;94273.13;2094749;28;1621;-75
2022/04/10 09:48:20;;;;;;;;;;;;;;;15.72;33.53;94283.28;2104919;28;1099;-66
2022/04/10 09:49:21;;;;;;;;;;;;;;;15.68;33.81;94274.06;2104428;28;1532;-66
2022/04/10 09:50:32;;;;;;;;;;;;;;;15.52;34.39;94273.41;2088751;28;2058;-66
2022/04/10 09:51:34;;;;;;;;;;;;;;;15.38;35.69;94279.69;2087707;28;1538;-65
2022/04/10 09:52:37;;;;;;;;;;;;;;;15.44;36.49;94270.13;2104096;28;1055;-67
2022/04/10 09:53:39;;;;;;;;;;;;;;;15.49;38.06;94280.94;2104737;28;1075;-67
2022/04/10 09:54:43;;;;;;;;;;;;;;;15.33;39.85;94274.16;2097962;28;1651;-66
2022/04/10 09:55:51;;;;;;;;;;;;;;;15.21;39.14;94267.78;2095621;28;1021;-66
2022/04/10 09:56:54;;;;;;;;;;;;;;;14.95;39.36;94277.22;2096768;28;1113;-66
2022/04/10 09:57:59;;;;;;;;;;;;;;;14.80;40.09;94276.53;2095496;28;1787;-66
2022/04/10 09:59:01;;;;;;;;;;;;;;;14.74;39.93;94283.41;2104375;28;1310;-66
2022/04/10 10:00:03;;;;;;;;;;;;;;;14.63;39.96;94290.00;2103797;28;1502;-65
2022/04/10 10:01:06;;;;;;;;;;;;;;;14.58;40.19;94283.66;2104112;28;1027;-65
2022/04/10 10:02:11;;;;;;;;;;;;;;;14.53;40.57;94285.00;2104934;28;1535;-72
2022/04/10 10:03:14;;;;;;;;;;;;;;;14.65;39.94;94287.13;2104660;28;1087;-65
2022/04/10 10:04:16;;;;;;;;;;;;;;;15.31;38.73;94284.94;2102113;28;1693;-65
2022/04/10 10:05:17;;;;;;;;;;;;;;;15.97;37.75;94287.03;2096383;28;1652;-65
2022/04/10 10:06:20;;;;;;;;;;;;;;;16.50;36.71;94297.72;2096151;28;1569;-66
2022/04/10 10:07:22;;;;;;;;;;;;;;;16.91;35.78;94290.59;2095984;28;1112;-66
2022/04/10 10:08:24;;;;;;;;;;;;;;;17.20;35.18;94284.00;2096471;28;1040;-66
2022/04/10 10:09:26;;;;;;;;;;;;;;;17.43;34.73;94287.00;2091435;28;1179;-66
2022/04/10 10:10:29;;;;;;;;;;;;;;;17.63;34.27;94286.91;2096184;28;1971;-66
2022/04/10 10:11:31;;;;;;;;;;;;;;;17.78;34.18;94281.34;2095574;28;1174;-65
2022/04/10 10:12:33;;;;;;;;;;;;;;;17.93;33.90;94285.59;2095245;28;1394;-67
2022/04/10 10:13:37;;;;;;;;;;;;;;;18.04;33.64;94292.88;2098628;28;1659;-65
2022/04/10 10:14:39;;;;;;;;;;;;;;;18.16;33.33;94298.38;2094349;28;1589;-67
2022/04/10 10:15:41;;;;;;;;;;;;;;;18.23;33.25;94288.47;2099544;28;1640;-65
2022/04/10 10:16:43;;;;;;;;;;;;;;;18.31;33.04;94286.38;2088148;28;1067;-67
2022/04/10 10:17:45;;;;;;;;;;;;;;;18.39;32.97;94287.97;2087913;28;962;-66
2022/04/10 10:18:48;;;;;;;;;;;;;;;18.45;32.87;94287.09;2088093;28;1187;-65
2022/04/10 10:19:51;;;;;;;;;;;;;;;18.52;32.78;94293.22;2086121;28;1163;-65
2022/04/10 10:20:53;;;;;;;;;;;;;;;18.57;32.92;94289.06;2094546;28;1701;-66
2022/04/10 10:21:55;;;;;;;;;;;;;;;18.65;32.73;94297.63;2097746;28;1374;-66
2022/04/10 10:23:00;;;;;;;;;;;;;;;18.68;32.77;94286.56;2094934;28;1621;-65
2022/04/10 10:24:02;;;;;;;;;;;;;;;18.73;32.75;94280.59;2099090;28;1159;-65
2022/04/10 10:25:10;;;;;;;;;;;;;;;18.77;32.67;94295.88;2098744;28;1115;-66
2022/04/10 10:26:26;;;;;;;;;;;;;;;18.82;32.28;94283.78;2098863;28;1165;-66
2022/04/10 10:27:34;;;;;;;;;;;;;;;18.86;32.41;94282.31;2099062;28;1028;-65
2022/04/10 10:28:55;;;;;;;;;;;;;;;18.89;32.29;94277.34;2093040;28;1253;-65
2022/04/10 10:30:18;;;;;;;;;;;;;;;18.95;32.19;94286.31;2092628;28;1096;-66
2022/04/10 10:31:26;;;;;;;;;;;;;;;18.99;32.44;94283.00;2087345;28;1377;-67
2022/04/10 10:32:41;;;;;;;;;;;;;;;19.02;32.10;94289.75;2083671;28;1947;-67
2022/04/10 10:34:03;;;;;;;;;;;;;;;19.07;32.08;94281.09;2095324;28;1425;-67
2022/04/10 10:35:05;;;;;;;;;;;;;;;19.10;32.29;94289.47;2086574;28;1174;-67
2022/04/10 10:36:20;;;;;;;;;;;;;;;19.13;32.05;94285.56;2081557;28;1198;-67
2022/04/10 10:37:31;;;;;;;;;;;;;;;19.15;32.03;94278.97;2096563;28;1159;-68
2022/04/10 10:38:33;;;;;;;;;;;;;;;19.20;32.16;94278.28;2093922;28;1546;-68
2022/04/10 10:39:49;;;;;;;;;;;;;;;19.21;32.05;94275.41;2090252;28;1244;-68
2022/04/10 10:40:51;;;;;;;;;;;;;;;19.25;32.03;94274.97;2089939;28;1533;-65
2022/04/10 10:41:53;;;;;;;;;;;;;;;19.27;31.95;94263.06;2096654;28;1166;-66
2022/04/10 10:43:00;;;;;;;;;;;;;;;19.29;31.88;94269.00;2093869;28;1924;-66
2022/04/10 10:44:15;;;;;;;;;;;;;;;19.31;31.95;94264.25;2082543;28;1054;-66
2022/04/10 10:45:31;;;;;;;;;;;;;;;19.33;32.03;94259.50;2081144;28;1773;-65
2022/04/10 10:46:34;;;;;;;;;;;;;;;19.36;31.92;94266.25;2092195;28;1029;-66
2022/04/10 10:47:35;;;;;;;;;;;;;;;19.37;31.87;94260.69;2096856;28;1090;-66
2022/04/10 10:48:38;;;;;;;;;;;;;;;19.39;31.73;94271.94;2081877;28;1211;-69
2022/04/10 10:49:44;;;;;;;;;;;;;;;19.42;31.95;94260.84;2081488;28;1101;-66
2022/04/10 10:50:46;;;;;;;;;;;;;;;19.43;31.82;94270.47;2082104;28;1987;-66
2022/04/10 10:51:51;;;;;;;;;;;;;;;19.48;31.81;94268.97;2081548;28;1003;-67
2022/04/10 10:53:23;;;;;;;;;;;;;;;19.53;31.72;94261.97;2081568;28;1104;-68
2022/04/10 10:54:24;;;;;;;;;;;;;;;19.60;31.73;94256.56;2082410;28;1110;-65
2022/04/10 10:55:42;;;;;;;;;;;;;;;19.65;31.61;94262.84;2083237;28;1059;-66
2022/04/10 10:56:46;;;;;;;;;;;;;;;19.69;31.88;94260.56;2082437;28;988;-65
2022/04/10 10:57:48;;;;;;;;;;;;;;;19.71;31.76;94258.47;2083266;28;1582;-66
2022/04/10 10:58:50;;;;;;;;;;;;;;;19.70;31.81;94258.72;2091421;28;1099;-67
2022/04/10 10:59:52;;;;;;;;;;;;;;;19.70;32.14;94251.53;2090232;28;1673;-66
2022/04/10 11:00:53;;;;;;;;;;;;;;;19.68;32.02;94248.28;2095315;28;1525;-66
2022/04/10 11:01:55;;;;;;;;;;;;;;;19.69;31.80;94265.91;2090373;28;1698;-67
2022/04/10 11:02:58;;;;;;;;;;;;;;;19.70;32.01;94254.19;2091218;28;1542;-66
2022/04/10 11:04:04;;;;;;;;;;;;;;;19.70;31.89;94254.19;2087869;28;1628;-66
2022/04/10 11:05:29;;;;;;;;;;;;;;;19.71;31.90;94260.34;2090637;28;1078;-65
2022/04/10 11:06:33;;;;;;;;;;;;;;;19.73;31.99;94260.94;2082328;28;1620;-66
2022/04/10 11:07:39;;;;;;;;;;;;;;;19.73;31.82;94261.75;2084547;28;1409;-66
2022/04/10 11:08:41;;;;;;;;;;;;;;;19.74;31.77;94252.69;2084798;28;1407;-65
2022/04/10 11:09:49;;;;;;;;;;;;;;;19.76;32.01;94260.47;2085938;28;1504;-66
2022/04/10 11:11:03;;;;;;;;;;;;;;;19.76;31.90;94258.63;2089858;28;1938;-65
2022/04/10 11:12:12;;;;;;;;;;;;;;;19.77;31.78;94257.56;2084514;28;1565;-65
2022/04/10 11:13:15;;;;;;;;;;;;;;;19.79;31.87;94249.38;2090055;28;1555;-66
2022/04/10 11:14:38;;;;;;;;;;;;;;;19.79;31.85;94244.84;2093238;28;1561;-66
2022/04/10 11:15:50;;;;;;;;;;;;;;;19.81;31.68;94252.63;2086033;28;1080;-67
2022/04/10 11:16:53;;;;;;;;;;;;;;;19.82;31.77;94244.38;2090594;28;1170;-66
2022/04/10 11:17:54;;;;;;;;;;;;;;;19.82;31.87;94240.91;2089638;28;1146;-67
2022/04/10 11:19:00;;;;;;;;;;;;;;;19.83;31.85;94240.72;2092643;28;1543;-67
2022/04/10 11:20:03;;;;;;;;;;;;;;;19.84;31.66;94236.19;2098360;28;1174;-66
2022/04/10 11:21:08;;;;;;;;;;;;;;;19.85;31.84;94241.28;2090190;28;1556;-66
2022/04/10 11:22:12;;;;;;;;;;;;;;;19.86;31.64;94242.09;2083692;28;1222;-66
2022/04/10 11:23:15;;;;;;;;;;;;;;;19.88;31.86;94246.16;2089600;28;1582;-65
2022/04/10 11:24:22;;;;;;;;;;;;;;;19.88;31.68;94248.81;2100920;28;1449;-67
2022/04/10 11:25:27;;;;;;;;;;;;;;;19.90;31.64;94253.94;2104337;28;1619;-66
2022/04/10 11:26:34;;;;;;;;;;;;;;;19.91;31.58;94252.06;2093289;28;1039;-66
2022/04/10 11:27:43;;;;;;;;;;;;;;;19.92;31.78;94259.03;2096537;28;1689;-66
2022/04/10 11:28:55;;;;;;;;;;;;;;;19.93;31.73;94250.81;2085467;28;1433;-68
2022/04/10 11:30:02;;;;;;;;;;;;;;;19.95;31.58;94248.75;2089614;28;1613;-66
2022/04/10 11:31:03;;;;;;;;;;;;;;;19.97;31.63;94253.84;2090286;28;1905;-67
2022/04/10 11:32:05;;;;;;;;;;;;;;;19.97;31.59;94245.84;2089710;28;1309;-67
2022/04/10 11:33:11;;;;;;;;;;;;;;;19.98;31.56;94242.16;2089138;28;1526;-66
2022/04/10 11:34:20;;;;;;;;;;;;;;;19.99;31.51;94247.25;2095475;28;1851;-67
2022/04/10 11:35:26;;;;;;;;;;;;;;;20.00;31.49;94250.72;2098038;28;1028;-67
2022/04/10 11:36:28;;;;;;;;;;;;;;;20.01;nan;94252.34;2089840;28;1580;-65
2022/04/10 11:37:38;;;;;;;;;;;;;;;20.01;31.70;94249.69;2085157;28;1187;-67
2022/04/10 11:38:39;;;;;;;;;;;;;;;20.03;31.68;94250.25;2087069;28;1067;-64
2022/04/10 11:39:42;;;;;;;;;;;;;;;20.03;31.63;94250.25;2089916;28;1190;-66
2022/04/10 11:40:48;;;;;;;;;;;;;;;20.04;31.46;94252.72;2090412;28;1111;-66
2022/04/10 11:41:50;;;;;;;;;;;;;;;20.04;31.54;94254.56;2089911;28;1042;-65
2022/04/10 11:42:54;;;;;;;;;;;;;;;20.04;31.46;94247.38;2089564;28;1112;-66
2022/04/10 11:43:56;;;;;;;;;;;;;;;20.05;31.38;94243.66;2097668;28;1306;-65
2022/04/10 11:44:58;;;;;;;;;;;;;;;20.06;31.58;94250.66;2096182;28;1380;-66
2022/04/10 11:46:01;;;;;;;;;;;;;;;20.08;31.53;94247.72;2090518;28;1026;-65
2022/04/10 11:47:09;;;;;;;;;;;;;;;20.09;31.36;94246.72;2090198;28;1087;-66
2022/04/10 11:48:11;;;;;;;;;;;;;;;20.10;31.56;94245.66;2081790;28;1346;-65
2022/04/10 11:49:13;;;;;;;;;;;;;;;20.09;31.51;94249.38;2089771;28;1526;-65
2022/04/10 11:50:14;;;;;;;;;;;;;;;20.11;31.43;94247.28;2089844;28;1311;-65
2022/04/10 11:51:16;;;;;;;;;;;;;;;20.11;31.53;94249.94;2089293;28;1981;-67
2022/04/10 11:52:18;;;;;;;;;;;;;;;20.11;31.45;94248.09;2090375;28;1048;-65
2022/04/10 11:53:29;;;;;;;;;;;;;;;20.11;31.36;94250.75;2090232;28;1416;-65
2022/04/10 11:54:36;;;;;;;;;;;;;;;20.13;31.59;94253.22;2089520;28;1175;-65
2022/04/10 11:55:42;;;;;;;;;;;;;;;20.14;31.40;94252.16;2089054;28;1589;-67
2022/04/10 11:56:43;;;;;;;;;;;;;;;20.14;31.64;94252.16;2090024;28;1510;-66
2022/04/10 11:57:48;;;;;;;;;;;;;;;20.15;31.56;94253.81;2092192;28;1608;-66
2022/04/10 11:58:49;;;;;;;;;;;;;;;20.16;31.40;94258.09;2082116;28;1282;-65
2022/04/10 11:59:53;;;;;;;;;;;;;;;20.16;31.59;94268.75;2088913;28;1147;-66
2022/04/10 12:00:56;;;;;;;;;;;;;;;20.17;31.27;94257.03;2090312;28;1650;-65
2022/04/10 12:01:58;;;;;;;;;;;;;;;20.17;31.46;94266.88;2105875;28;1640;-65
2022/04/10 12:03:00;;;;;;;;;;;;;;;20.18;31.42;94258.69;2095759;28;1461;-66
2022/04/10 12:04:01;;;;;;;;;;;;;;;20.19;31.29;94260.28;2089080;28;1584;-67
2022/04/10 12:05:03;;;;;;;;;;;;;;;20.20;31.32;94263.78;2089872;28;1565;-68
2022/04/10 12:06:06;;;;;;;;;;;;;;;20.20;31.30;94259.25;2105527;28;1644;-66
2022/04/10 12:07:13;;;;;;;;;;;;;;;20.20;31.44;94256.56;2104284;28;1693;-66
2022/04/10 12:08:15;;;;;;;;;;;;;;;20.21;31.49;94252.06;2086029;28;1329;-66
2022/04/10 12:09:17;;;;;;;;;;;;;;;20.21;31.28;94247.56;2088352;28;1412;-66
2022/04/10 12:10:19;;;;;;;;;;;;;;;20.22;31.25;94248.38;2084027;28;1394;-66
2022/04/10 12:11:21;;;;;;;;;;;;;;;20.22;31.27;94240.34;2089795;28;1914;-65
2022/04/10 12:12:36;;;;;;;;;;;;;;;20.23;31.33;94248.16;2089088;28;1247;-66
2022/04/10 12:13:38;;;;;;;;;;;;;;;20.22;31.33;94246.50;2083220;28;1853;-66
2022/04/10 12:14:40;;;;;;;;;;;;;;;20.24;31.48;94254.28;2086535;28;1459;-65
2022/04/10 12:15:41;;;;;;;;;;;;;;;20.24;31.31;94240.94;2092432;28;1761;-65
2022/04/10 12:16:43;;;;;;;;;;;;;;;20.24;31.36;94247.09;2089000;28;1107;-65
2022/04/10 12:17:45;;;;;;;;;;;;;;;20.26;31.59;94244.19;2089154;28;1095;-66
2022/04/10 12:19:07;;;;;;;;;;;;;;;20.27;31.41;94245.81;2088632;28;1573;-65
2022/04/10 12:20:09;;;;;;;;;;;;;;;20.26;31.41;94238.84;2088739;28;1681;-65
2022/04/10 12:21:11;;;;;;;;;;;;;;;20.27;31.27;94235.16;2100356;28;1139;-66
2022/04/10 12:22:12;;;;;;;;;;;;;;;20.27;31.44;94240.50;2105221;28;1174;-65
2022/04/10 12:23:15;;;;;;;;;;;;;;;20.27;31.41;94235.97;2089965;28;1306;-65
2022/04/10 12:24:20;;;;;;;;;;;;;;;20.28;31.31;94234.91;2090177;28;1074;-66
2022/04/10 12:25:28;;;;;;;;;;;;;;;20.29;31.25;94241.09;2089248;28;1410;-68
2022/04/10 12:26:37;;;;;;;;;;;;;;;20.30;31.40;94240.84;2089668;28;1492;-68
2022/04/10 12:27:39;;;;;;;;;;;;;;;20.31;31.28;94246.97;2088241;28;1610;-67
2022/04/10 12:28:42;;;;;;;;;;;;;;;20.31;31.29;94242.47;2085406;28;1692;-66
2022/04/10 12:29:44;;;;;;;;;;;;;;;20.31;31.41;94242.47;2089375;28;1100;-66
2022/04/10 12:30:46;;;;;;;;;;;;;;;20.31;31.50;94239.78;2089987;28;1024;-64
2022/04/10 12:31:48;;;;;;;;;;;;;;;20.32;31.24;94238.75;2086849;28;1981;-68
2022/04/10 12:32:50;;;;;;;;;;;;;;;20.32;31.33;94236.09;2086957;28;1572;-64
2022/04/10 12:33:53;;;;;;;;;;;;;;;20.31;31.36;94242.47;2088996;28;1100;-65
2022/04/10 12:35:05;;;;;;;;;;;;;;;20.33;31.22;94240.38;2089248;28;1178;-67
2022/04/10 12:36:16;;;;;;;;;;;;;;;20.33;31.46;94229.72;2088489;28;1151;-66
2022/04/10 12:37:19;;;;;;;;;;;;;;;20.33;31.26;94219.03;2088691;28;1668;-66
2022/04/10 12:38:20;;;;;;;;;;;;;;;20.33;31.23;94213.72;2091922;28;1499;-65
2022/04/10 12:39:23;;;;;;;;;;;;;;;20.34;31.43;94226.03;2097666;28;1017;-65
2022/04/10 12:40:26;;;;;;;;;;;;;;;20.34;31.15;94223.34;2097836;28;1495;-65
2022/04/10 12:41:29;;;;;;;;;;;;;;;20.36;31.39;94227.63;2098102;28;1162;-66
2022/04/10 12:42:37;;;;;;;;;;;;;;;20.36;31.26;94222.31;2097729;28;1110;-65
2022/04/10 12:43:39;;;;;;;;;;;;;;;20.37;31.28;94213.28;2092900;28;2016;-65
2022/04/10 12:44:41;;;;;;;;;;;;;;;20.36;31.56;94220.44;2098047;28;1632;-65
2022/04/10 12:45:43;;;;;;;;;;;;;;;20.36;31.38;94215.09;2096778;28;1698;-65
2022/04/10 12:46:46;;;;;;;;;;;;;;;20.38;31.50;94222.91;2089524;28;1025;-65
2022/04/10 12:47:54;;;;;;;;;;;;;;;20.38;31.41;94220.25;2089309;28;1733;-65
2022/04/10 12:49:11;;;;;;;;;;;;;;;20.39;31.37;94225.34;2089571;28;1229;-66
2022/04/10 12:50:19;;;;;;;;;;;;;;;20.39;31.23;94240.53;2099606;28;1031;-66
2022/04/10 12:51:21;;;;;;;;;;;;;;;20.38;31.47;94241.59;2104308;28;916;-65
2022/04/10 12:52:22;;;;;;;;;;;;;;;20.38;31.30;94247.75;2089900;28;1910;-66
2022/04/10 12:53:26;;;;;;;;;;;;;;;20.40;31.29;94263.50;2089130;28;1131;-66
2022/04/10 12:54:50;;;;;;;;;;;;;;;20.40;31.23;94266.97;2084037;28;1480;-64
2022/04/10 12:55:51;;;;;;;;;;;;;;;20.40;31.29;94266.16;2098235;28;1111;-66
2022/04/10 12:56:53;;;;;;;;;;;;;;;20.40;31.36;94271.50;2098401;28;1135;-66
2022/04/10 12:57:56;;;;;;;;;;;;;;;20.40;31.26;94277.66;2097223;28;1100;-66
2022/04/10 12:58:58;;;;;;;;;;;;;;;20.41;31.24;94283.81;2097739;28;1559;-67
2022/04/10 12:59:59;;;;;;;;;;;;;;;20.41;31.41;94273.97;2091648;28;1686;-66
2022/04/10 13:01:01;;;;;;;;;;;;;;;20.42;31.20;94274.78;2090135;28;1100;-67
2022/04/10 13:02:07;;;;;;;;;;;;;;;20.42;31.23;94269.44;2090273;28;1029;-65
2022/04/10 13:03:18;;;;;;;;;;;;;;;20.42;31.39;94269.44;2089240;28;1553;-66
2022/04/10 13:04:29;;;;;;;;;;;;;;;20.43;31.40;94263.03;2089560;28;1055;-67
2022/04/10 13:05:31;;;;;;;;;;;;;;;20.43;31.21;94261.22;2100723;28;1170;-66
2022/04/10 13:06:46;;;;;;;;;;;;;;;20.43;31.29;94255.03;2105959;28;1094;-66
2022/04/10 13:08:13;;;;;;;;;;;;;;;20.43;31.31;94255.88;2090108;28;1275;-68
2022/04/10 13:09:16;;;;;;;;;;;;;;;20.44;31.34;94254.03;2086702;28;1913;-65
2022/04/10 13:10:18;;;;;;;;;;;;;;;20.44;31.50;94243.34;2081198;28;1087;-67
2022/04/10 13:11:22;;;;;;;;;;;;;;;20.44;31.52;94252.16;2081862;28;1131;-66
2022/04/10 13:12:33;;;;;;;;;;;;;;;20.44;31.40;94254.81;2081186;28;1910;-66
2022/04/10 13:13:53;;;;;;;;;;;;;;;20.46;31.44;94262.59;2089582;28;1678;-65
2022/04/10 13:14:55;;;;;;;;;;;;;;;20.45;31.41;94255.63;2089882;28;1103;-66
2022/04/10 13:15:57;;;;;;;;;;;;;;;20.47;31.21;94250.88;2085259;28;1328;-66
2022/04/10 13:17:03;;;;;;;;;;;;;;;20.46;31.35;94258.09;2095275;28;1546;-64
2022/04/10 13:18:06;;;;;;;;;;;;;;;20.46;31.25;94254.59;2092851;28;1642;-66
2022/04/10 13:19:11;;;;;;;;;;;;;;;20.47;31.35;94261.56;2103962;28;1443;-66
2022/04/10 13:20:13;;;;;;;;;;;;;;;20.47;31.43;94262.38;2104160;28;1614;-66
2022/04/10 13:21:17;;;;;;;;;;;;;;;20.46;31.26;94271.44;2088310;28;1491;-65
2022/04/10 13:22:18;;;;;;;;;;;;;;;20.47;31.36;94253.56;2089810;28;1056;-65
2022/04/10 13:23:20;;;;;;;;;;;;;;;20.47;31.21;94266.91;2088782;28;1095;-65
2022/04/10 13:24:23;;;;;;;;;;;;;;;20.47;31.19;94262.38;2089212;28;1080;-66
2022/04/10 13:25:25;;;;;;;;;;;;;;;20.48;31.14;94257.84;2088970;28;1095;-66
2022/04/10 13:26:27;;;;;;;;;;;;;;;20.48;31.47;94264.00;2088976;28;1306;-65
2022/04/10 13:27:29;;;;;;;;;;;;;;;20.48;31.30;94266.66;2084730;28;1076;-65
2022/04/10 13:28:31;;;;;;;;;;;;;;;20.49;31.40;94268.31;2089585;28;1046;-66
2022/04/10 13:29:32;;;;;;;;;;;;;;;20.49;31.23;94267.50;2089598;28;1560;-65
2022/04/10 13:30:34;;;;;;;;;;;;;;;20.49;31.37;94272.81;2090008;28;1025;-66
2022/04/10 13:31:36;;;;;;;;;;;;;;;20.50;31.14;94269.09;2089665;28;1161;-66
2022/04/10 13:32:38;;;;;;;;;;;;;;;20.51;31.37;94281.41;2091599;28;1995;-67
2022/04/10 13:33:39;;;;;;;;;;;;;;;20.49;31.49;94275.50;2097462;28;1046;-67
2022/04/10 13:34:43;;;;;;;;;;;;;;;20.50;31.28;94274.44;2097163;28;1119;-66
2022/04/10 13:35:44;;;;;;;;;;;;;;;20.51;31.27;94276.06;2098356;28;1047;-70
2022/04/10 13:36:46;;;;;;;;;;;;;;;20.50;31.30;94277.91;2095989;28;1648;-67
2022/04/10 13:37:48;;;;;;;;;;;;;;;20.50;31.44;94282.44;2088644;28;1027;-68
2022/04/10 13:38:49;;;;;;;;;;;;;;;20.51;31.43;94284.88;2085475;28;1390;-66
2022/04/10 13:39:51;;;;;;;;;;;;;;;20.52;31.17;94283.03;2089358;28;1024;-67
2022/04/10 13:40:52;;;;;;;;;;;;;;;20.51;31.25;94284.06;2093907;28;1602;-65
2022/04/10 13:41:54;;;;;;;;;;;;;;;20.52;31.23;94291.06;2098267;28;1031;-67
2022/04/10 13:42:56;;;;;;;;;;;;;;;20.52;31.25;94285.72;2097178;28;1262;-66
2022/04/10 13:44:00;;;;;;;;;;;;;;;20.52;31.27;94291.06;2097374;28;1158;-66
2022/04/10 13:45:02;;;;;;;;;;;;;;;20.48;31.24;94288.00;2098118;28;1491;-65
2022/04/10 13:46:04;;;;;;;;;;;;;;;20.52;31.40;94291.06;2089213;28;1461;-66
2022/04/10 13:47:06;;;;;;;;;;;;;;;20.52;31.35;94286.53;2090023;28;1084;-64
2022/04/10 13:48:08;;;;;;;;;;;;;;;20.52;31.22;94286.53;2088199;28;1768;-67
2022/04/10 13:49:09;;;;;;;;;;;;;;;20.53;31.41;94292.66;2085112;28;1480;-67
2022/04/10 13:50:11;;;;;;;;;;;;;;;20.53;31.40;94298.00;2088414;28;1127;-66
2022/04/10 13:51:13;;;;;;;;;;;;;;;20.54;31.44;94291.63;2089000;28;1084;-65
2022/04/10 13:52:15;;;;;;;;;;;;;;;20.54;31.38;94294.28;2089585;28;1903;-65
2022/04/10 13:53:17;;;;;;;;;;;;;;;20.53;31.17;94306.81;2089632;28;1120;-66
2022/04/10 13:54:18;;;;;;;;;;;;;;;20.54;31.38;94302.28;2090101;28;1541;-66
2022/04/10 13:55:20;;;;;;;;;;;;;;;20.54;31.22;94299.63;2089751;28;1607;-66
2022/04/10 13:56:21;;;;;;;;;;;;;;;20.55;31.41;94301.25;2090007;28;953;-65
2022/04/10 13:57:23;;;;;;;;;;;;;;;20.55;31.25;94301.25;2090912;28;1170;-65
2022/04/10 13:58:25;;;;;;;;;;;;;;;20.54;31.18;94300.47;2090465;28;1682;-67
2022/04/10 13:59:32;;;;;;;;;;;;;;;20.55;31.24;94301.25;2082744;28;1688;-67
2022/04/10 14:00:34;;;;;;;;;;;;;;;20.54;31.04;94299.63;2078817;28;1048;-66
2022/04/10 14:01:35;;;;;;;;;;;;;;;20.55;31.25;94309.28;2083272;28;1115;-66
2022/04/10 14:02:37;;;;;;;;;;;;;;;20.55;31.35;94295.94;2091325;28;1781;-67
2022/04/10 14:03:39;;;;;;;;;;;;;;;20.55;31.28;94301.25;2099206;28;1063;-67
2022/04/10 14:04:41;;;;;;;;;;;;;;;20.56;31.27;94297.53;2097984;28;1147;-66
2022/04/10 14:05:42;;;;;;;;;;;;;;;20.56;31.54;94294.88;2087002;28;1528;-68
2022/04/10 14:06:44;;;;;;;;;;;;;;;20.56;31.14;94293.00;2086753;28;1036;-68
2022/04/10 14:07:45;;;;;;;;;;;;;;;20.55;31.56;94293.25;2090376;28;1116;-67
2022/04/10 14:08:47;;;;;;;;;;;;;;;20.56;31.24;94297.53;2091177;28;1069;-68
2022/04/10 14:09:53;;;;;;;;;;;;;;;20.56;31.57;94298.34;2092370;28;1111;-68
2022/04/10 14:10:56;;;;;;;;;;;;;;;20.56;31.40;94292.22;2087039;28;1367;-66
2022/04/10 14:11:58;;;;;;;;;;;;;;;20.57;31.22;94299.16;2095756;28;1785;-65
2022/04/10 14:13:01;;;;;;;;;;;;;;;20.56;31.18;94292.22;2098376;28;1897;-64
2022/04/10 14:14:02;;;;;;;;;;;;;;;20.56;31.17;94293.00;2090996;28;1096;-66
2022/04/10 14:15:04;;;;;;;;;;;;;;;20.58;31.27;94295.47;2091119;28;1484;-66
2022/04/10 14:16:06;;;;;;;;;;;;;;;20.57;31.49;94291.16;2090552;28;1331;-66
2022/04/10 14:17:08;;;;;;;;;;;;;;;20.57;31.28;94288.47;2089560;28;1887;-68
2022/04/10 14:18:09;;;;;;;;;;;;;;;20.57;31.20;94299.16;2089434;28;1666;-66
2022/04/10 14:19:11;;;;;;;;;;;;;;;20.58;31.21;94294.66;2090987;28;1035;-67
2022/04/10 14:20:13;;;;;;;;;;;;;;;20.57;31.28;94288.47;2090160;28;1151;-66
2022/04/10 14:21:14;;;;;;;;;;;;;;;20.58;31.33;94290.13;2091153;28;1139;-67
2022/04/10 14:22:16;;;;;;;;;;;;;;;20.58;31.33;94292.81;2086312;28;1324;-68
2022/04/10 14:23:18;;;;;;;;;;;;;;;20.59;31.28;94289.06;2090588;28;1653;-67
2022/04/10 14:24:19;;;;;;;;;;;;;;;20.58;31.25;94282.13;2090912;28;837;-66
2022/04/10 14:25:21;;;;;;;;;;;;;;;20.58;31.26;94281.31;2090632;28;1616;-67
2022/04/10 14:26:22;;;;;;;;;;;;;;;20.59;31.42;94282.94;2087867;28;1373;-68
2022/04/10 14:27:24;;;;;;;;;;;;;;;20.58;31.38;94287.47;2089188;28;1629;-66
2022/04/10 14:28:25;;;;;;;;;;;;;;;20.59;31.19;94282.94;2097792;28;1642;-65
2022/04/10 14:29:27;;;;;;;;;;;;;;;20.59;31.28;94285.59;2098271;28;1103;-66
2022/04/10 14:30:29;;;;;;;;;;;;;;;20.60;31.25;94282.72;2098016;28;1292;-67
2022/04/10 14:31:30;;;;;;;;;;;;;;;20.61;31.48;94278.19;2090501;28;1186;-67
2022/04/10 14:32:32;;;;;;;;;;;;;;;20.60;31.39;94285.38;2096243;28;1999;-67
2022/04/10 14:33:34;;;;;;;;;;;;;;;20.61;31.13;94294.19;2094737;28;1145;-67
2022/04/10 14:34:37;;;;;;;;;;;;;;;20.66;31.34;94300.47;2098485;28;1095;-71
2022/04/10 14:35:38;;;;;;;;;;;;;;;20.70;31.22;94311.50;2092847;28;1672;-68
2022/04/10 14:36:40;;;;;;;;;;;;;;;20.71;31.25;94305.91;2088855;28;1222;-66
2022/04/10 14:37:41;;;;;;;;;;;;;;;20.79;31.36;94310.13;2090075;28;1959;-72
2022/04/10 14:38:43;;;;;;;;;;;;;;;20.89;31.30;94306.91;2097426;28;1170;-69
2022/04/10 14:39:44;;;;;;;;;;;;;;;20.94;31.12;94309.66;2096387;28;1659;-70
2022/04/10 14:40:49;;;;;;;;;;;;;;;21.01;30.96;94299.69;2100478;28;1099;-68
2022/04/10 14:41:50;;;;;;;;;;;;;;;21.05;31.07;94300.03;2099693;28;1074;-69
2022/04/10 14:42:52;;;;;;;;;;;;;;;21.07;31.17;94303.31;2098724;28;1440;-69
2022/04/10 14:43:56;;;;;;;;;;;;;;;21.09;30.97;94295.88;2087703;28;1334;-68
2022/04/10 14:44:57;;;;;;;;;;;;;;;21.09;31.17;94291.34;2088614;28;1629;-68
2022/04/10 14:45:59;;;;;;;;;;;;;;;21.10;31.03;94284.94;2090851;28;1361;-68
2022/04/10 14:47:03;;;;;;;;;;;;;;;21.11;31.02;94293.78;2090105;28;1330;-67
2022/04/10 14:48:05;;;;;;;;;;;;;;;21.12;31.02;94295.41;2096843;28;1792;-68
2022/04/10 14:49:07;;;;;;;;;;;;;;;21.12;30.81;94296.22;2090868;28;1616;-66
2022/04/10 14:50:09;;;;;;;;;;;;;;;21.14;30.92;94312.00;2090126;28;1056;-68